Time;durP1;ratioP1;P1;durP2;ratioP2;P2;SDS_P1;SDS_P2;PMS_P1;PMS_P2;Temp;Humidity;BMP_temperature;BMP_pressure;BME280_temperature;BME280_humidity;BME280_pressure;Samples;Min_cycle;Max_cycle;Signal;HPM_P1;HPM_P2
2023/09/25 00:00:23;;;;;;;;;;;;;;;24.02;56.68;99599.31;5091534;28;19977;-77
2023/09/25 00:02:48;;;;;;;;;;;;;;;24.05;57.17;99593.38;5091567;28;19923;-77
2023/09/25 00:05:16;;;;;;;;;;;;;;;24.02;57.22;99601.19;5091774;28;19916;-77
2023/09/25 00:07:41;;;;;;;;;;;;;;;24.03;56.47;99595.53;5091706;28;19923;-77
2023/09/25 00:10:07;;;;;;;;;;;;;;;24.04;57.05;99596.34;5073624;28;19972;-78
2023/09/25 00:12:33;;;;;;;;;;;;;;;24.01;58.46;99595.00;5091635;28;19916;-78
2023/09/25 00:14:58;;;;;;;;;;;;;;;24.05;57.80;99598.78;5091766;28;19951;-77
2023/09/25 00:17:23;;;;;;;;;;;;;;;24.04;56.81;99590.94;5073689;28;20388;-77
2023/09/25 00:19:48;;;;;;;;;;;;;;;24.02;57.55;99593.91;5091798;28;19912;-77
2023/09/25 00:22:14;;;;;;;;;;;;;;;24.02;56.99;99587.72;5073224;28;19916;-77
2023/09/25 00:24:39;;;;;;;;;;;;;;;24.06;56.96;99586.09;5091366;28;20452;-77
2023/09/25 00:27:04;;;;;;;;;;;;;;;24.08;57.12;99598.25;5091240;28;19920;-77
2023/09/25 00:29:30;;;;;;;;;;;;;;;24.09;56.80;99594.47;5091344;28;19912;-77
2023/09/25 00:31:55;;;;;;;;;;;;;;;24.04;55.13;99599.03;5091304;28;19912;-77
2023/09/25 00:34:20;;;;;;;;;;;;;;;24.01;58.08;99594.19;5091463;28;19912;-76
2023/09/25 00:36:46;;;;;;;;;;;;;;;24.01;57.40;99599.56;5091114;28;19912;-76
2023/09/25 00:39:11;;;;;;;;;;;;;;;24.02;57.52;99604.72;5073266;28;19962;-75
2023/09/25 00:41:36;;;;;;;;;;;;;;;23.96;58.98;99594.16;5091310;28;19934;-76
2023/09/25 00:44:02;;;;;;;;;;;;;;;23.96;57.66;99599.56;5091405;28;19922;-77
2023/09/25 00:46:27;;;;;;;;;;;;;;;23.93;56.76;99589.31;5093812;28;19921;-76
2023/09/25 00:48:52;;;;;;;;;;;;;;;23.90;56.95;99593.34;5076575;28;19912;-77
2023/09/25 00:51:18;;;;;;;;;;;;;;;23.86;59.00;99592.25;5094979;28;19923;-76
2023/09/25 00:53:45;;;;;;;;;;;;;;;23.76;58.43;99594.88;5095274;28;19940;-79
2023/09/25 00:56:10;;;;;;;;;;;;;;;23.76;56.95;99601.06;5094895;28;19918;-77
2023/09/25 00:58:35;;;;;;;;;;;;;;;23.71;55.49;99597.53;5094802;28;20331;-76
2023/09/25 01:01:01;;;;;;;;;;;;;;;23.63;57.91;99600.72;5094632;28;19912;-76
2023/09/25 01:03:26;;;;;;;;;;;;;;;23.63;58.16;99606.13;5094760;28;19941;-76
2023/09/25 01:05:51;;;;;;;;;;;;;;;23.67;58.26;99608.03;5094842;28;19957;-76
2023/09/25 01:08:17;;;;;;;;;;;;;;;23.70;58.56;99609.41;5094554;28;19912;-76
2023/09/25 01:10:42;;;;;;;;;;;;;;;23.74;58.43;99607.78;5094236;28;19935;-77
2023/09/25 01:13:09;;;;;;;;;;;;;;;23.79;57.38;99605.16;5094264;28;19912;-77
2023/09/25 01:15:35;;;;;;;;;;;;;;;23.79;58.59;99599.75;5094669;28;19920;-76
2023/09/25 01:18:00;;;;;;;;;;;;;;;23.76;56.99;99606.47;5094422;28;20415;-77
2023/09/25 01:20:25;;;;;;;;;;;;;;;23.79;58.66;99604.34;5094253;28;19912;-78
2023/09/25 01:22:51;;;;;;;;;;;;;;;23.79;58.13;99607.03;5094448;28;20006;-77
2023/09/25 01:25:17;;;;;;;;;;;;;;;23.76;57.13;99611.03;5094367;28;20381;-77
2023/09/25 01:27:43;;;;;;;;;;;;;;;23.74;59.49;99614.00;5094336;28;19919;-78
2023/09/25 01:30:09;;;;;;;;;;;;;;;23.71;56.51;99609.13;5094282;28;19920;-76
2023/09/25 01:32:35;;;;;;;;;;;;;;;23.66;58.74;99624.47;5094195;28;19986;-78
2023/09/25 01:35:02;;;;;;;;;;;;;;;23.61;58.80;99624.44;5076144;28;20332;-77
2023/09/25 01:37:27;;;;;;;;;;;;;;;23.55;58.39;99622.78;5075913;28;19918;-78
2023/09/25 01:39:52;;;;;;;;;;;;;;;23.56;58.45;99621.72;5093993;28;19912;-77
2023/09/25 01:42:18;;;;;;;;;;;;;;;23.56;57.83;99616.34;5093633;28;19912;-78
2023/09/25 01:44:43;;;;;;;;;;;;;;;23.57;58.27;99618.75;5093898;28;19916;-77
2023/09/25 01:47:08;;;;;;;;;;;;;;;23.57;57.72;99620.66;5075756;28;19912;-77
2023/09/25 01:49:34;;;;;;;;;;;;;;;23.59;57.94;99621.19;5093791;28;20429;-79
2023/09/25 01:52:06;;;;;;;;;;;;;;;23.56;58.94;99632.50;5093719;28;19923;-77
2023/09/25 01:54:32;;;;;;;;;;;;;;;23.59;57.41;99629.28;5075754;28;19916;-77
2023/09/25 01:56:57;;;;;;;;;;;;;;;23.59;58.82;99630.09;5092754;28;19919;-79
2023/09/25 01:59:22;;;;;;;;;;;;;;;23.58;57.94;99633.88;5093534;28;20350;-76
2023/09/25 02:01:47;;;;;;;;;;;;;;;23.58;58.38;99631.16;5093512;28;19912;-76
2023/09/25 02:04:13;;;;;;;;;;;;;;;23.57;60.37;99637.63;5093795;28;19959;-77
2023/09/25 02:06:38;;;;;;;;;;;;;;;23.58;57.11;99635.75;5093515;28;20474;-77
2023/09/25 02:09:03;;;;;;;;;;;;;;;23.51;58.85;99638.66;5093446;28;19918;-77
2023/09/25 02:11:29;;;;;;;;;;;;;;;23.53;58.52;99633.00;5093149;28;19912;-78
2023/09/25 02:13:54;;;;;;;;;;;;;;;23.54;59.39;99635.44;5093303;28;19912;-77
2023/09/25 02:16:19;;;;;;;;;;;;;;;23.55;60.03;99638.97;5075063;28;20369;-77
2023/09/25 02:18:44;;;;;;;;;;;;;;;23.58;59.50;99639.25;5075159;28;19913;-77
2023/09/25 02:21:09;;;;;;;;;;;;;;;23.57;58.42;99644.91;5093449;28;19912;-78
2023/09/25 02:23:35;;;;;;;;;;;;;;;23.51;59.09;99638.66;5093517;28;19968;-78
2023/09/25 02:26:01;;;;;;;;;;;;;;;23.46;57.53;99638.63;5093445;28;19916;-77
2023/09/25 02:28:26;;;;;;;;;;;;;;;23.39;61.30;99638.84;5093189;28;20373;-77
2023/09/25 02:30:51;;;;;;;;;;;;;;;23.40;59.88;99639.66;5092947;28;19912;-78
2023/09/25 02:33:16;;;;;;;;;;;;;;;23.39;59.28;99644.22;5074899;28;20008;-78
2023/09/25 02:35:41;;;;;;;;;;;;;;;23.41;59.01;99639.41;5074830;28;20380;-77
2023/09/25 02:38:07;;;;;;;;;;;;;;;23.43;59.66;99644.53;5093375;28;19990;-77
2023/09/25 02:40:32;;;;;;;;;;;;;;;23.43;57.48;99639.94;5092803;28;19912;-77
2023/09/25 02:42:57;;;;;;;;;;;;;;;23.43;57.79;99639.13;5092800;28;19916;-78
2023/09/25 02:45:23;;;;;;;;;;;;;;;23.42;58.84;99645.59;5074343;28;20346;-78
2023/09/25 02:47:48;;;;;;;;;;;;;;;23.42;59.85;99646.41;5092541;28;19912;-77
2023/09/25 02:50:15;;;;;;;;;;;;;;;23.39;59.95;99643.41;5092521;28;19912;-77
2023/09/25 02:52:43;;;;;;;;;;;;;;;23.40;61.49;99645.84;5092349;28;19965;-78
2023/09/25 02:55:09;;;;;;;;;;;;;;;23.44;59.16;99644.25;5074159;28;20439;-78
2023/09/25 02:57:34;;;;;;;;;;;;;;;23.45;60.65;99642.38;5074245;28;19912;-78
2023/09/25 03:00:00;;;;;;;;;;;;;;;23.54;59.20;99645.41;5092200;28;19923;-77
2023/09/25 03:02:26;;;;;;;;;;;;;;;23.55;59.46;99637.09;5092279;28;19912;-77
2023/09/25 03:04:51;;;;;;;;;;;;;;;23.59;59.22;99653.53;5092399;28;19920;-78
2023/09/25 03:07:17;;;;;;;;;;;;;;;23.62;59.00;99648.44;5092392;28;19912;-78
2023/09/25 03:09:42;;;;;;;;;;;;;;;23.66;57.67;99654.13;5092255;28;19916;-77
2023/09/25 03:12:07;;;;;;;;;;;;;;;23.52;60.60;99651.03;5073738;28;19919;-78
2023/09/25 03:14:32;;;;;;;;;;;;;;;23.45;59.54;99653.16;5092011;28;19918;-77
2023/09/25 03:16:58;;;;;;;;;;;;;;;23.43;58.96;99653.41;5092261;28;19919;-77
2023/09/25 03:19:23;;;;;;;;;;;;;;;23.40;59.55;99663.91;5092197;28;19959;-77
2023/09/25 03:21:48;;;;;;;;;;;;;;;23.42;60.51;99659.88;5092105;28;19911;-77
2023/09/25 03:24:14;;;;;;;;;;;;;;;23.45;59.88;99661.25;5092117;28;19923;-78
2023/09/25 03:26:39;;;;;;;;;;;;;;;23.43;60.22;99664.19;5092010;28;19912;-77
2023/09/25 03:29:06;;;;;;;;;;;;;;;23.42;59.93;99664.47;5091975;28;19912;-77
2023/09/25 03:31:31;;;;;;;;;;;;;;;23.41;59.90;99662.84;5091738;28;19916;-78
2023/09/25 03:33:56;;;;;;;;;;;;;;;23.36;61.27;99663.59;5073662;28;19919;-78
2023/09/25 03:36:22;;;;;;;;;;;;;;;23.39;60.52;99665.78;5092098;28;19918;-78
2023/09/25 03:38:47;;;;;;;;;;;;;;;23.39;60.14;99663.09;5092486;28;19912;-77
2023/09/25 03:41:13;;;;;;;;;;;;;;;23.36;60.22;99665.50;5091753;28;20429;-77
2023/09/25 03:43:38;;;;;;;;;;;;;;;23.38;60.98;99664.16;5073871;28;20485;-77
2023/09/25 03:46:03;;;;;;;;;;;;;;;23.37;60.36;99664.41;5092150;28;19912;-77
2023/09/25 03:48:29;;;;;;;;;;;;;;;23.40;60.02;99666.59;5091901;28;19919;-77
2023/09/25 03:50:54;;;;;;;;;;;;;;;23.41;60.08;99665.53;5091464;28;19973;-77
2023/09/25 03:53:19;;;;;;;;;;;;;;;23.40;60.46;99661.22;5073589;28;20376;-78
2023/09/25 03:55:45;;;;;;;;;;;;;;;23.39;59.97;99665.78;5091715;28;20014;-78
2023/09/25 03:58:10;;;;;;;;;;;;;;;23.38;61.15;99676.81;5091989;28;19962;-78
2023/09/25 04:00:37;;;;;;;;;;;;;;;23.35;59.70;99677.34;5091539;28;20417;-78
2023/09/25 04:03:02;;;;;;;;;;;;;;;23.36;60.48;99669.00;5091469;28;19913;-78
2023/09/25 04:05:27;;;;;;;;;;;;;;;23.32;59.68;99686.75;5091673;28;19912;-77
2023/09/25 04:07:52;;;;;;;;;;;;;;;23.33;60.64;99684.88;5091673;28;20022;-77
2023/09/25 04:10:18;;;;;;;;;;;;;;;23.29;60.52;99683.75;5091723;28;19919;-77
2023/09/25 04:12:44;;;;;;;;;;;;;;;23.28;60.88;99691.03;5073587;28;19912;-77
2023/09/25 04:15:14;;;;;;;;;;;;;;;23.30;59.96;99698.84;5090918;28;20309;-77
2023/09/25 04:17:43;;;;;;;;;;;;;;;23.34;59.19;99700.78;5091913;28;20308;-77
2023/09/25 04:20:17;;;;;;;;;;;;;;;23.37;60.15;99702.97;5092682;28;19967;-77
2023/09/25 04:22:43;;;;;;;;;;;;;;;23.42;60.09;99708.38;5095894;28;19980;-77
2023/09/25 04:25:15;;;;;;;;;;;;;;;23.39;59.89;99703.50;5095973;28;19912;-77
2023/09/25 04:27:41;;;;;;;;;;;;;;;23.39;59.48;99703.50;5095667;28;19916;-76
2023/09/25 04:30:08;;;;;;;;;;;;;;;23.39;60.33;99716.16;5095766;28;20299;-78
2023/09/25 04:32:33;;;;;;;;;;;;;;;23.34;60.61;99722.34;5095429;28;19912;-77
2023/09/25 04:34:59;;;;;;;;;;;;;;;23.34;59.67;99716.94;5095412;28;19987;-76
2023/09/25 04:37:25;;;;;;;;;;;;;;;23.35;59.18;99725.84;5095219;28;19916;-78
2023/09/25 04:39:50;;;;;;;;;;;;;;;23.31;59.48;99720.16;5095323;28;19920;-78
2023/09/25 04:42:15;;;;;;;;;;;;;;;23.32;60.77;99716.38;5077445;28;19974;-78
2023/09/25 04:44:40;;;;;;;;;;;;;;;23.29;60.32;99714.22;5095261;28;19955;-75
2023/09/25 04:47:05;;;;;;;;;;;;;;;23.37;60.04;99718.31;5076995;28;19912;-78
2023/09/25 04:49:31;;;;;;;;;;;;;;;23.43;59.39;99710.00;5095119;28;19999;-77
2023/09/25 04:51:57;;;;;;;;;;;;;;;23.43;60.90;99712.69;5076780;28;20313;-77
2023/09/25 04:54:22;;;;;;;;;;;;;;;23.43;60.00;99719.97;5095076;28;19916;-77
2023/09/25 04:56:47;;;;;;;;;;;;;;;23.48;58.88;99716.50;5095203;28;20010;-77
2023/09/25 04:59:13;;;;;;;;;;;;;;;23.51;59.13;99727.59;5094926;28;19923;-77
2023/09/25 05:01:39;;;;;;;;;;;;;;;23.50;59.49;99720.56;5095046;28;19920;-77
2023/09/25 05:04:04;;;;;;;;;;;;;;;23.56;59.41;99724.94;5095212;28;19912;-78
2023/09/25 05:06:29;;;;;;;;;;;;;;;23.59;59.38;99723.63;5095019;28;19972;-76
2023/09/25 05:08:55;;;;;;;;;;;;;;;23.63;58.91;99730.94;5095216;28;19998;-76
2023/09/25 05:11:21;;;;;;;;;;;;;;;23.60;59.22;99731.44;5094351;28;19942;-77
2023/09/25 05:13:46;;;;;;;;;;;;;;;23.63;59.25;99720.16;5094467;28;19923;-77
2023/09/25 05:16:12;;;;;;;;;;;;;;;23.67;58.66;99726.66;5075962;28;19912;-78
2023/09/25 05:18:37;;;;;;;;;;;;;;;23.67;58.62;99737.44;5075998;28;19912;-77
2023/09/25 05:21:02;;;;;;;;;;;;;;;23.65;58.38;99744.16;5094547;28;19916;-78
2023/09/25 05:23:27;;;;;;;;;;;;;;;23.68;59.21;99730.16;5076531;28;19976;-77
2023/09/25 05:25:56;;;;;;;;;;;;;;;23.71;58.33;99735.03;5094611;28;19966;-78
2023/09/25 05:28:22;;;;;;;;;;;;;;;23.77;57.95;99739.38;5094521;28;19935;-78
2023/09/25 05:30:48;;;;;;;;;;;;;;;23.83;58.13;99741.06;5093947;28;20373;-76
2023/09/25 05:33:14;;;;;;;;;;;;;;;23.84;57.99;99741.88;5075152;28;19912;-77
2023/09/25 05:35:39;;;;;;;;;;;;;;;23.80;58.96;99741.59;5094751;28;20010;-77
2023/09/25 05:38:04;;;;;;;;;;;;;;;23.87;57.66;99739.47;5094011;28;20003;-77
2023/09/25 05:40:30;;;;;;;;;;;;;;;23.82;58.77;99741.34;5093860;28;19916;-77
2023/09/25 05:42:55;;;;;;;;;;;;;;;23.80;57.52;99741.59;5093713;28;19956;-77
2023/09/25 05:45:21;;;;;;;;;;;;;;;23.85;58.15;99748.91;5093566;28;19912;-77
2023/09/25 05:47:46;;;;;;;;;;;;;;;23.84;57.82;99745.41;5093520;28;19943;-77
2023/09/25 05:50:12;;;;;;;;;;;;;;;23.91;58.51;99745.16;5093480;28;19904;-77
2023/09/25 05:52:38;;;;;;;;;;;;;;;23.89;58.04;99750.00;5093667;28;19920;-77
2023/09/25 05:55:10;;;;;;;;;;;;;;;23.92;58.83;99753.00;5090445;28;19916;-75
2023/09/25 05:57:35;;;;;;;;;;;;;;;23.90;58.24;99752.44;5072395;28;19924;-76
2023/09/25 06:00:03;;;;;;;;;;;;;;;23.93;57.80;99753.81;5080037;28;19927;-77
2023/09/25 06:02:28;;;;;;;;;;;;;;;23.90;57.82;99752.44;5085934;28;19955;-78
2023/09/25 06:04:54;;;;;;;;;;;;;;;23.95;58.75;99762.44;5093555;28;20396;-77
2023/09/25 06:07:20;;;;;;;;;;;;;;;24.00;57.97;99752.50;5093129;28;19978;-77
2023/09/25 06:09:46;;;;;;;;;;;;;;;24.03;57.19;99756.56;5092284;28;19919;-78
2023/09/25 06:12:13;;;;;;;;;;;;;;;24.08;57.32;99762.81;5092832;28;19912;-78
2023/09/25 06:14:39;;;;;;;;;;;;;;;24.11;57.84;99758.78;5091787;28;19922;-77
2023/09/25 06:17:04;;;;;;;;;;;;;;;24.17;57.23;99751.50;5093049;28;20003;-78
2023/09/25 06:19:29;;;;;;;;;;;;;;;24.23;57.90;99764.78;5092948;28;20007;-76
2023/09/25 06:21:54;;;;;;;;;;;;;;;24.22;56.71;99773.13;5074787;28;19916;-77
2023/09/25 06:24:21;;;;;;;;;;;;;;;24.24;56.44;99774.50;5092733;28;20384;-78
2023/09/25 06:26:47;;;;;;;;;;;;;;;24.29;56.23;99773.72;5074438;28;19913;-77
2023/09/25 06:29:13;;;;;;;;;;;;;;;24.34;56.19;99771.06;5092525;28;19938;-78
2023/09/25 06:31:39;;;;;;;;;;;;;;;24.29;56.25;99774.53;5092780;28;19912;-77
2023/09/25 06:34:05;;;;;;;;;;;;;;;24.35;56.29;99776.19;5092753;28;20388;-76
2023/09/25 06:36:31;;;;;;;;;;;;;;;24.30;56.48;99778.06;5090701;28;19916;-77
2023/09/25 06:38:56;;;;;;;;;;;;;;;24.25;56.43;99788.78;5092114;28;20351;-78
2023/09/25 06:41:21;;;;;;;;;;;;;;;24.28;56.21;99788.28;5073335;28;19978;-78
2023/09/25 06:44:24;;;;;;;;;;;;;;;24.27;56.85;99800.97;5070531;28;20004;-78
2023/09/25 06:46:49;;;;;;;;;;;;;;;24.28;56.53;99789.13;5061527;28;19916;-77
2023/09/25 06:49:15;;;;;;;;;;;;;;;24.31;56.47;99798.56;5088424;28;19916;-78
2023/09/25 06:51:40;;;;;;;;;;;;;;;24.34;56.30;99798.03;5090703;28;19920;-77
2023/09/25 06:54:05;;;;;;;;;;;;;;;24.34;56.04;99793.47;5085277;28;19923;-78
2023/09/25 06:56:31;;;;;;;;;;;;;;;24.31;56.33;99795.88;5090651;28;19920;-77
2023/09/25 06:58:56;;;;;;;;;;;;;;;24.33;56.76;99789.13;5090624;28;20323;-78
2023/09/25 07:04:24;;;;;;;;;;;;;;;24.36;56.88;99793.19;5089610;28;19923;-77
2023/09/25 07:06:50;;;;;;;;;;;;;;;24.37;56.67;99789.41;5089693;28;19916;-76
2023/09/25 07:09:15;;;;;;;;;;;;;;;24.35;57.22;99792.38;5090329;28;19923;-76
2023/09/25 07:11:41;;;;;;;;;;;;;;;24.39;56.19;99795.38;5090452;28;20336;-76
2023/09/25 07:14:06;;;;;;;;;;;;;;;24.46;56.94;99798.66;5089833;28;19916;-78
2023/09/25 07:16:31;;;;;;;;;;;;;;;24.43;56.57;99793.78;5090589;28;19969;-77
2023/09/25 07:18:57;;;;;;;;;;;;;;;24.42;56.32;99794.03;5073577;28;20388;-77
2023/09/25 07:21:22;;;;;;;;;;;;;;;24.51;56.29;99795.97;5087511;28;19920;-76
2023/09/25 07:23:48;;;;;;;;;;;;;;;24.64;56.35;99795.50;5091302;28;19916;-76
2023/09/25 07:26:15;;;;;;;;;;;;;;;24.67;55.93;99796.88;5090975;28;19912;-77
2023/09/25 07:28:41;;;;;;;;;;;;;;;24.76;55.92;99794.47;5091504;28;19918;-77
2023/09/25 07:31:07;;;;;;;;;;;;;;;24.79;55.86;99805.56;5088390;28;19916;-77
2023/09/25 07:33:32;;;;;;;;;;;;;;;24.84;55.89;99805.56;5085838;28;20358;-77
2023/09/25 07:35:58;;;;;;;;;;;;;;;24.87;56.09;99796.94;5089803;28;19916;-75
2023/09/25 07:38:23;;;;;;;;;;;;;;;24.98;55.35;99798.63;5091560;28;19986;-76
2023/09/25 07:40:49;;;;;;;;;;;;;;;25.08;55.75;99800.53;5091283;28;20373;-76
2023/09/25 07:43:19;;;;;;;;;;;;;;;25.27;53.86;99798.16;5091467;28;19912;-77
2023/09/25 07:45:44;;;;;;;;;;;;;;;25.20;55.38;99801.09;5091322;28;19916;-77
2023/09/25 07:48:11;;;;;;;;;;;;;;;25.19;55.41;99798.66;5091111;28;20400;-78
2023/09/25 07:50:38;;;;;;;;;;;;;;;25.28;54.75;99800.59;5091240;28;19918;-76
2023/09/25 07:53:03;;;;;;;;;;;;;;;25.35;55.30;99794.94;5091512;28;19916;-77
2023/09/25 07:55:28;;;;;;;;;;;;;;;25.47;54.04;99795.47;5071454;28;19916;-77
2023/09/25 07:57:54;;;;;;;;;;;;;;;25.61;53.17;99790.34;5089110;28;19916;-78
2023/09/25 08:00:34;;;;;;;;;;;;;;;25.73;53.72;99806.31;5095013;28;19918;-76
2023/09/25 08:02:59;;;;;;;;;;;;;;;25.82;53.55;99802.00;5095775;28;19916;-75
2023/09/25 08:05:24;;;;;;;;;;;;;;;25.89;53.69;99803.34;5095324;28;20416;-78
2023/09/25 08:07:50;;;;;;;;;;;;;;;25.90;53.48;99796.84;5095278;28;19912;-76
2023/09/25 08:10:17;;;;;;;;;;;;;;;25.87;53.10;99794.69;5095331;28;19970;-78
2023/09/25 08:12:42;;;;;;;;;;;;;;;25.89;53.03;99805.22;5095260;28;19912;-78
2023/09/25 08:15:08;;;;;;;;;;;;;;;25.86;52.94;99787.66;5094944;28;19969;-78
2023/09/25 08:17:34;;;;;;;;;;;;;;;25.84;52.99;99786.28;5094739;28;19958;-77
2023/09/25 08:19:59;;;;;;;;;;;;;;;25.84;52.57;99781.69;5094967;28;19951;-78
2023/09/25 08:22:25;;;;;;;;;;;;;;;25.84;53.10;99781.69;5077302;28;19922;-77
2023/09/25 08:24:51;;;;;;;;;;;;;;;25.86;52.62;99784.94;5095340;28;20068;-78
2023/09/25 08:27:16;;;;;;;;;;;;;;;25.95;52.67;99774.38;5076526;28;20395;-78
2023/09/25 08:29:42;;;;;;;;;;;;;;;26.03;52.25;99773.03;5095296;28;19954;-78
2023/09/25 08:32:07;;;;;;;;;;;;;;;26.09;52.51;99789.00;5095318;28;20296;-77
2023/09/25 08:34:33;;;;;;;;;;;;;;;26.14;52.01;99786.28;5095111;28;19916;-77
2023/09/25 08:36:59;;;;;;;;;;;;;;;26.15;51.78;99782.47;5095375;28;19916;-78
2023/09/25 08:39:24;;;;;;;;;;;;;;;26.19;51.35;99778.13;5095383;28;19912;-78
2023/09/25 08:41:49;;;;;;;;;;;;;;;26.34;51.07;99776.50;5095435;28;19916;-78
2023/09/25 08:44:16;;;;;;;;;;;;;;;26.40;50.62;99781.63;5095842;28;19919;-78
2023/09/25 08:46:41;;;;;;;;;;;;;;;26.37;50.90;99774.06;5095239;28;19916;-77
2023/09/25 08:49:07;;;;;;;;;;;;;;;26.41;50.40;99787.84;5076572;28;19924;-77
2023/09/25 08:51:37;;;;;;;;;;;;;;;26.54;50.44;99781.84;5076029;28;20086;-77
2023/09/25 08:54:03;;;;;;;;;;;;;;;26.73;50.41;99779.31;5094622;28;19985;-78
2023/09/25 08:56:29;;;;;;;;;;;;;;;26.88;49.74;99782.78;5094752;28;20385;-77
2023/09/25 08:58:56;;;;;;;;;;;;;;;26.97;49.81;99779.47;5076609;28;19944;-78
2023/09/25 09:01:21;;;;;;;;;;;;;;;27.00;49.80;99779.75;5094757;28;19916;-78
2023/09/25 09:03:46;;;;;;;;;;;;;;;26.86;49.94;99778.72;5094247;28;19916;-77
2023/09/25 09:06:12;;;;;;;;;;;;;;;26.76;50.01;99781.50;5094083;28;19920;-79
2023/09/25 09:08:38;;;;;;;;;;;;;;;26.72;49.78;99777.69;5093953;28;19916;-78
2023/09/25 09:11:10;;;;;;;;;;;;;;;26.68;49.87;99769.31;5094281;28;19919;-79
2023/09/25 09:13:42;;;;;;;;;;;;;;;26.60;49.88;99776.13;5094312;28;20316;-78
2023/09/25 09:16:12;;;;;;;;;;;;;;;26.51;49.94;99758.84;5093645;28;19908;-79
2023/09/25 09:18:37;;;;;;;;;;;;;;;26.47;50.11;99762.38;5093936;28;19981;-76
2023/09/25 09:21:03;;;;;;;;;;;;;;;26.49;50.13;99765.63;5094071;28;20312;-77
2023/09/25 09:23:41;;;;;;;;;;;;;;;26.57;50.15;99773.97;5093965;28;20469;-78
2023/09/25 09:26:13;;;;;;;;;;;;;;;26.70;49.57;99763.63;5092824;28;19916;-77
2023/09/25 09:28:40;;;;;;;;;;;;;;;26.62;49.47;99762.31;5071346;28;20014;-76
2023/09/25 09:31:07;;;;;;;;;;;;;;;26.64;49.67;99767.44;5072348;28;20353;-78
2023/09/25 09:33:32;;;;;;;;;;;;;;;26.59;49.68;99763.66;5077960;28;19912;-77
2023/09/25 09:35:57;;;;;;;;;;;;;;;26.56;49.82;99766.13;5094136;28;20038;-78
2023/09/25 09:38:24;;;;;;;;;;;;;;;26.64;49.75;99762.03;5094048;28;20305;-78
2023/09/25 09:40:51;;;;;;;;;;;;;;;26.74;49.87;99751.13;5093901;28;19916;-78
2023/09/25 09:43:16;;;;;;;;;;;;;;;26.87;49.43;99750.56;5094476;28;20014;-78
2023/09/25 09:45:43;;;;;;;;;;;;;;;26.91;48.92;99751.59;5093762;28;19943;-76
2023/09/25 09:48:10;;;;;;;;;;;;;;;27.16;48.81;99750.66;5093544;28;19918;-78
2023/09/25 09:50:36;;;;;;;;;;;;;;;27.26;48.45;99747.06;5093604;28;19955;-78
2023/09/25 09:53:03;;;;;;;;;;;;;;;27.48;48.20;99742.81;5093806;28;19912;-77
2023/09/25 09:55:31;;;;;;;;;;;;;;;27.51;48.15;99744.97;5092370;28;19916;-78
2023/09/25 09:57:56;;;;;;;;;;;;;;;27.52;47.74;99743.88;5093244;28;20011;-77
2023/09/25 10:00:23;;;;;;;;;;;;;;;27.44;47.95;99740.94;5075662;28;19998;-78
2023/09/25 10:02:49;;;;;;;;;;;;;;;27.32;48.03;99741.31;5093469;28;20007;-78
2023/09/25 10:05:14;;;;;;;;;;;;;;;27.26;48.25;99739.75;5075399;28;20011;-77
2023/09/25 10:07:58;;;;;;;;;;;;;;;27.17;48.09;99739.53;5093638;28;19919;-78
2023/09/25 10:10:24;;;;;;;;;;;;;;;27.25;48.18;99729.97;5093171;28;19916;-78
2023/09/25 10:12:50;;;;;;;;;;;;;;;27.27;48.00;99729.69;5092883;28;19947;-78
2023/09/25 10:15:22;;;;;;;;;;;;;;;27.36;47.93;99728.81;5071765;28;19959;-77
2023/09/25 10:17:48;;;;;;;;;;;;;;;27.50;47.74;99718.13;5085478;28;19918;-76
2023/09/25 10:20:28;;;;;;;;;;;;;;;27.68;47.52;99722.06;5072483;28;19999;-76
2023/09/25 10:22:57;;;;;;;;;;;;;;;27.91;47.37;99712.34;5092825;28;19920;-78
2023/09/25 10:25:23;;;;;;;;;;;;;;;27.96;46.05;99717.72;5093192;28;19916;-78
2023/09/25 10:27:49;;;;;;;;;;;;;;;27.92;46.56;99701.19;5093274;28;19999;-78
2023/09/25 10:30:16;;;;;;;;;;;;;;;27.92;46.05;99703.91;5092967;28;19955;-77
2023/09/25 10:32:49;;;;;;;;;;;;;;;27.80;46.95;99709.72;5092473;28;19924;-77
2023/09/25 10:35:33;;;;;;;;;;;;;;;27.67;46.72;99702.28;5092602;28;20388;-77
2023/09/25 10:38:22;;;;;;;;;;;;;;;27.67;46.74;99699.56;5092543;28;19912;-77
2023/09/25 10:40:52;;;;;;;;;;;;;;;27.83;46.21;99692.88;5092254;28;19920;-75
2023/09/25 10:43:21;;;;;;;;;;;;;;;28.03;45.83;99691.84;5092631;28;19912;-77
2023/09/25 10:45:47;;;;;;;;;;;;;;;28.16;45.96;99696.56;5092663;28;19912;-76
2023/09/25 10:48:12;;;;;;;;;;;;;;;28.35;45.34;99691.22;5092661;28;19969;-78
2023/09/25 10:50:39;;;;;;;;;;;;;;;28.65;43.90;99676.41;5092072;28;19928;-76
2023/09/25 10:53:06;;;;;;;;;;;;;;;29.15;44.03;99670.53;5074292;28;19916;-75
2023/09/25 10:55:33;;;;;;;;;;;;;;;29.60;41.94;99680.63;5090759;28;20436;-78
2023/09/25 10:58:00;;;;;;;;;;;;;;;29.72;42.87;99683.66;5092139;28;19916;-76
2023/09/25 11:00:26;;;;;;;;;;;;;;;29.85;42.18;99664.94;5088182;28;19968;-78
2023/09/25 11:02:52;;;;;;;;;;;;;;;29.78;41.97;99662.63;5063603;28;20319;-77
2023/09/25 11:05:18;;;;;;;;;;;;;;;29.48;41.50;99664.00;5091763;28;19919;-78
2023/09/25 11:07:45;;;;;;;;;;;;;;;29.35;42.09;99654.66;5092062;28;20365;-76
2023/09/25 11:10:13;;;;;;;;;;;;;;;29.16;40.74;99655.81;5091981;28;19919;-77
2023/09/25 11:12:39;;;;;;;;;;;;;;;29.09;42.44;99657.03;5091571;28;19922;-77
2023/09/25 11:15:11;;;;;;;;;;;;;;;29.04;41.68;99656.31;5092045;28;19935;-74
2023/09/25 11:17:40;;;;;;;;;;;;;;;29.12;41.83;99654.81;5091854;28;20000;-76
2023/09/25 11:20:12;;;;;;;;;;;;;;;29.24;40.33;99649.72;5091915;28;19912;-76
2023/09/25 11:22:39;;;;;;;;;;;;;;;29.23;40.85;99656.25;5091978;28;20015;-77
2023/09/25 11:25:07;;;;;;;;;;;;;;;29.35;39.72;99651.13;5092089;28;19981;-77
2023/09/25 11:27:32;;;;;;;;;;;;;;;29.63;39.27;99652.00;5089346;28;20013;-77
2023/09/25 11:30:04;;;;;;;;;;;;;;;29.64;38.58;99640.03;5091383;28;19924;-77
2023/09/25 11:32:30;;;;;;;;;;;;;;;29.69;39.30;99645.38;5071420;28;19912;-76
2023/09/25 11:34:55;;;;;;;;;;;;;;;29.56;38.51;99636.09;5089880;28;20385;-75
2023/09/25 11:37:20;;;;;;;;;;;;;;;29.80;38.89;99626.94;5091197;28;19922;-77
2023/09/25 11:39:46;;;;;;;;;;;;;;;29.96;39.05;99631.78;5092061;28;19916;-78
2023/09/25 11:42:12;;;;;;;;;;;;;;;30.20;38.19;99622.59;5091635;28;20395;-78
2023/09/25 11:44:37;;;;;;;;;;;;;;;30.40;37.68;99621.34;5090754;28;20030;-78
2023/09/25 11:47:03;;;;;;;;;;;;;;;30.35;38.90;99617.59;5089276;28;19924;-77
2023/09/25 11:49:28;;;;;;;;;;;;;;;30.36;38.87;99624.66;5086403;28;19920;-77
2023/09/25 11:51:54;;;;;;;;;;;;;;;30.29;38.02;99618.84;5088777;28;19927;-77
2023/09/25 11:54:19;;;;;;;;;;;;;;;30.32;38.04;99617.41;5091040;28;20002;-76
2023/09/25 11:56:44;;;;;;;;;;;;;;;30.29;37.87;99618.84;5091580;28;20297;-77
2023/09/25 11:59:11;;;;;;;;;;;;;;;30.17;38.49;99624.00;5091579;28;19912;-77
2023/09/25 12:01:37;;;;;;;;;;;;;;;29.97;38.09;99622.50;5090917;28;19927;-78
2023/09/25 12:04:02;;;;;;;;;;;;;;;29.84;38.38;99614.34;5091122;28;19917;-78
2023/09/25 12:06:28;;;;;;;;;;;;;;;29.82;39.62;99617.38;5090954;28;19923;-78
2023/09/25 12:08:53;;;;;;;;;;;;;;;29.74;37.20;99620.81;5090864;28;19916;-76
2023/09/25 12:11:19;;;;;;;;;;;;;;;29.68;36.65;99619.25;5090918;28;20305;-77
2023/09/25 12:13:44;;;;;;;;;;;;;;;29.65;37.37;99620.66;5091205;28;19965;-78
2023/09/25 12:16:10;;;;;;;;;;;;;;;29.65;37.92;99612.50;5073144;28;19912;-77
2023/09/25 12:18:35;;;;;;;;;;;;;;;29.54;37.06;99610.28;5091188;28;20097;-78
2023/09/25 12:21:01;;;;;;;;;;;;;;;29.48;38.16;99612.31;5091115;28;19924;-78
2023/09/25 12:23:26;;;;;;;;;;;;;;;29.40;37.13;99619.22;5091311;28;20282;-77
2023/09/25 12:25:51;;;;;;;;;;;;;;;29.40;37.73;99612.97;5088069;28;19916;-77
2023/09/25 12:28:17;;;;;;;;;;;;;;;29.38;37.90;99607.03;5090070;28;19923;-78
2023/09/25 12:30:43;;;;;;;;;;;;;;;29.36;37.98;99620.13;5090503;28;20297;-76
2023/09/25 12:33:09;;;;;;;;;;;;;;;29.42;37.70;99621.63;5091049;28;19916;-76
2023/09/25 12:35:36;;;;;;;;;;;;;;;29.44;37.08;99605.03;5090051;28;20004;-77
2023/09/25 12:38:01;;;;;;;;;;;;;;;29.39;37.90;99606.72;5090627;28;19916;-76
2023/09/25 12:40:29;;;;;;;;;;;;;;;29.38;37.42;99607.03;5090512;28;19916;-76
2023/09/25 12:42:54;;;;;;;;;;;;;;;29.32;37.00;99605.50;5092310;28;19923;-76
2023/09/25 12:45:20;;;;;;;;;;;;;;;29.29;36.92;99604.19;5093367;28;19916;-77